sensor_id;sensor_type;location;lat;lon;timestamp;temperature;humidity
20155;DHT22;10238;49.556;10.956;2024-02-21T00:02:12;6.80;99.90
20155;DHT22;10238;49.556;10.956;2024-02-21T00:05:01;6.80;99.90
20155;DHT22;10238;49.556;10.956;2024-02-21T00:07:50;6.80;99.90
20155;DHT22;10238;49.556;10.956;2024-02-21T00:10:38;6.70;99.90
20155;DHT22;10238;49.556;10.956;2024-02-21T00:13:26;6.80;99.90
20155;DHT22;10238;49.556;10.956;2024-02-21T00:16:13;6.70;99.90
20155;DHT22;10238;49.556;10.956;2024-02-21T00:19:02;6.70;99.90
20155;DHT22;10238;49.556;10.956;2024-02-21T00:21:50;6.70;99.90
20155;DHT22;10238;49.556;10.956;2024-02-21T00:24:38;6.70;99.90
20155;DHT22;10238;49.556;10.956;2024-02-21T00:27:26;6.70;99.90
20155;DHT22;10238;49.556;10.956;2024-02-21T00:30:14;6.60;99.90
20155;DHT22;10238;49.556;10.956;2024-02-21T00:33:02;6.60;99.90
20155;DHT22;10238;49.556;10.956;2024-02-21T00:35:50;6.60;99.90
20155;DHT22;10238;49.556;10.956;2024-02-21T00:38:38;6.50;99.90
20155;DHT22;10238;49.556;10.956;2024-02-21T00:41:26;6.50;99.90
20155;DHT22;10238;49.556;10.956;2024-02-21T00:44:14;6.50;99.90
20155;DHT22;10238;49.556;10.956;2024-02-21T00:47:02;6.50;99.90
20155;DHT22;10238;49.556;10.956;2024-02-21T00:49:49;6.50;99.90
20155;DHT22;10238;49.556;10.956;2024-02-21T00:52:37;6.40;99.90
20155;DHT22;10238;49.556;10.956;2024-02-21T00:55:24;6.40;99.90
20155;DHT22;10238;49.556;10.956;2024-02-21T00:58:13;6.40;99.90
20155;DHT22;10238;49.556;10.956;2024-02-21T01:01:01;6.40;99.90
20155;DHT22;10238;49.556;10.956;2024-02-21T01:03:49;6.50;99.90
20155;DHT22;10238;49.556;10.956;2024-02-21T01:06:37;6.50;99.90
20155;DHT22;10238;49.556;10.956;2024-02-21T01:09:25;6.50;99.90
20155;DHT22;10238;49.556;10.956;2024-02-21T01:12:12;6.50;99.90
20155;DHT22;10238;49.556;10.956;2024-02-21T01:15:01;6.50;99.90
20155;DHT22;10238;49.556;10.956;2024-02-21T01:17:48;6.50;99.90
20155;DHT22;10238;49.556;10.956;2024-02-21T01:20:40;6.50;99.90
20155;DHT22;10238;49.556;10.956;2024-02-21T01:23:28;6.50;99.90
20155;DHT22;10238;49.556;10.956;2024-02-21T01:26:15;6.50;99.90
20155;DHT22;10238;49.556;10.956;2024-02-21T01:29:02;6.40;99.90
20155;DHT22;10238;49.556;10.956;2024-02-21T01:31:51;6.40;99.90
20155;DHT22;10238;49.556;10.956;2024-02-21T01:34:39;6.40;99.90
20155;DHT22;10238;49.556;10.956;2024-02-21T01:37:27;6.30;99.90
20155;DHT22;10238;49.556;10.956;2024-02-21T01:40:15;6.30;99.90
20155;DHT22;10238;49.556;10.956;2024-02-21T01:43:03;6.30;99.90
20155;DHT22;10238;49.556;10.956;2024-02-21T01:45:53;6.30;99.90
20155;DHT22;10238;49.556;10.956;2024-02-21T01:48:43;6.30;99.90
20155;DHT22;10238;49.556;10.956;2024-02-21T01:51:32;6.20;99.90
20155;DHT22;10238;49.556;10.956;2024-02-21T01:54:21;6.20;99.90
20155;DHT22;10238;49.556;10.956;2024-02-21T01:57:09;6.20;99.90
20155;DHT22;10238;49.556;10.956;2024-02-21T01:59:56;6.20;99.90
20155;DHT22;10238;49.556;10.956;2024-02-21T02:02:44;6.20;99.90
20155;DHT22;10238;49.556;10.956;2024-02-21T02:05:35;6.10;99.90
20155;DHT22;10238;49.556;10.956;2024-02-21T02:08:23;6.20;99.90
20155;DHT22;10238;49.556;10.956;2024-02-21T02:11:13;6.20;99.90
20155;DHT22;10238;49.556;10.956;2024-02-21T02:14:01;6.10;99.90
20155;DHT22;10238;49.556;10.956;2024-02-21T02:16:49;6.10;99.90
20155;DHT22;10238;49.556;10.956;2024-02-21T02:19:37;6.10;99.90
20155;DHT22;10238;49.556;10.956;2024-02-21T02:22:28;6.10;99.90
20155;DHT22;10238;49.556;10.956;2024-02-21T02:25:21;6.10;99.90
20155;DHT22;10238;49.556;10.956;2024-02-21T02:28:09;6.10;99.90
20155;DHT22;10238;49.556;10.956;2024-02-21T02:30:56;6.10;99.90
20155;DHT22;10238;49.556;10.956;2024-02-21T02:33:44;6.10;99.90
20155;DHT22;10238;49.556;10.956;2024-02-21T02:36:33;6.10;99.90
20155;DHT22;10238;49.556;10.956;2024-02-21T02:39:22;6.10;99.90
20155;DHT22;10238;49.556;10.956;2024-02-21T02:42:11;6.10;99.90
20155;DHT22;10238;49.556;10.956;2024-02-21T02:44:59;6.10;99.90
20155;DHT22;10238;49.556;10.956;2024-02-21T02:47:46;6.10;99.90
20155;DHT22;10238;49.556;10.956;2024-02-21T02:50:35;6.00;99.90
20155;DHT22;10238;49.556;10.956;2024-02-21T02:53:22;6.00;99.90
20155;DHT22;10238;49.556;10.956;2024-02-21T02:56:14;6.00;99.90
20155;DHT22;10238;49.556;10.956;2024-02-21T02:59:04;6.00;99.90
20155;DHT22;10238;49.556;10.956;2024-02-21T03:01:51;5.90;99.90
20155;DHT22;10238;49.556;10.956;2024-02-21T03:04:39;6.00;99.90
20155;DHT22;10238;49.556;10.956;2024-02-21T03:07:27;5.90;99.90
20155;DHT22;10238;49.556;10.956;2024-02-21T03:10:15;5.90;99.90
20155;DHT22;10238;49.556;10.956;2024-02-21T03:13:04;5.90;99.90
20155;DHT22;10238;49.556;10.956;2024-02-21T03:15:53;5.90;99.90
20155;DHT22;10238;49.556;10.956;2024-02-21T03:18:42;5.90;99.90
20155;DHT22;10238;49.556;10.956;2024-02-21T03:21:30;5.90;99.90
20155;DHT22;10238;49.556;10.956;2024-02-21T03:24:19;5.90;99.90
20155;DHT22;10238;49.556;10.956;2024-02-21T03:27:07;5.90;99.90
20155;DHT22;10238;49.556;10.956;2024-02-21T03:29:55;5.90;99.90
20155;DHT22;10238;49.556;10.956;2024-02-21T03:32:44;5.90;99.90
20155;DHT22;10238;49.556;10.956;2024-02-21T03:35:32;5.90;99.90
20155;DHT22;10238;49.556;10.956;2024-02-21T03:38:19;5.80;99.90
20155;DHT22;10238;49.556;10.956;2024-02-21T03:41:07;5.90;99.90
20155;DHT22;10238;49.556;10.956;2024-02-21T03:43:55;5.80;99.90
20155;DHT22;10238;49.556;10.956;2024-02-21T03:46:43;5.90;99.90
20155;DHT22;10238;49.556;10.956;2024-02-21T03:49:32;5.90;99.90
20155;DHT22;10238;49.556;10.956;2024-02-21T03:52:20;5.90;99.90
20155;DHT22;10238;49.556;10.956;2024-02-21T03:55:08;5.90;99.90
20155;DHT22;10238;49.556;10.956;2024-02-21T03:57:56;5.90;99.90
20155;DHT22;10238;49.556;10.956;2024-02-21T04:00:44;5.90;99.90
20155;DHT22;10238;49.556;10.956;2024-02-21T04:03:32;5.90;99.90
20155;DHT22;10238;49.556;10.956;2024-02-21T04:06:21;5.90;99.90
20155;DHT22;10238;49.556;10.956;2024-02-21T04:09:09;5.90;99.90
20155;DHT22;10238;49.556;10.956;2024-02-21T04:11:56;5.90;99.90
20155;DHT22;10238;49.556;10.956;2024-02-21T04:14:44;6.00;99.90
20155;DHT22;10238;49.556;10.956;2024-02-21T04:17:33;6.00;99.90
20155;DHT22;10238;49.556;10.956;2024-02-21T04:20:21;6.00;99.90
20155;DHT22;10238;49.556;10.956;2024-02-21T04:23:11;6.00;99.90
20155;DHT22;10238;49.556;10.956;2024-02-21T04:25:58;6.00;99.90
20155;DHT22;10238;49.556;10.956;2024-02-21T04:28:46;6.00;99.90
20155;DHT22;10238;49.556;10.956;2024-02-21T04:31:34;6.00;99.90
20155;DHT22;10238;49.556;10.956;2024-02-21T04:34:23;6.00;99.90
20155;DHT22;10238;49.556;10.956;2024-02-21T04:37:11;6.00;99.90
20155;DHT22;10238;49.556;10.956;2024-02-21T04:40:00;5.90;99.90
20155;DHT22;10238;49.556;10.956;2024-02-21T04:42:48;6.00;99.90
20155;DHT22;10238;49.556;10.956;2024-02-21T04:45:36;6.00;99.90
20155;DHT22;10238;49.556;10.956;2024-02-21T04:48:23;5.90;99.90
20155;DHT22;10238;49.556;10.956;2024-02-21T04:51:11;5.90;99.90
20155;DHT22;10238;49.556;10.956;2024-02-21T04:54:00;5.90;99.90
20155;DHT22;10238;49.556;10.956;2024-02-21T04:56:49;5.90;99.90
20155;DHT22;10238;49.556;10.956;2024-02-21T04:59:39;5.80;99.90
20155;DHT22;10238;49.556;10.956;2024-02-21T05:02:26;5.80;99.90
20155;DHT22;10238;49.556;10.956;2024-02-21T05:05:14;5.70;99.90
20155;DHT22;10238;49.556;10.956;2024-02-21T05:08:03;5.70;99.90
20155;DHT22;10238;49.556;10.956;2024-02-21T05:10:52;5.70;99.90
20155;DHT22;10238;49.556;10.956;2024-02-21T05:13:41;5.60;99.90
20155;DHT22;10238;49.556;10.956;2024-02-21T05:16:29;5.60;99.90
20155;DHT22;10238;49.556;10.956;2024-02-21T05:19:17;5.50;99.90
20155;DHT22;10238;49.556;10.956;2024-02-21T05:22:05;5.50;99.90
20155;DHT22;10238;49.556;10.956;2024-02-21T05:24:53;5.50;99.90
20155;DHT22;10238;49.556;10.956;2024-02-21T05:27:41;5.50;99.90
20155;DHT22;10238;49.556;10.956;2024-02-21T05:30:30;5.40;99.90
20155;DHT22;10238;49.556;10.956;2024-02-21T05:33:17;5.40;99.90
20155;DHT22;10238;49.556;10.956;2024-02-21T05:36:08;5.30;99.90
20155;DHT22;10238;49.556;10.956;2024-02-21T05:38:55;5.30;99.90
20155;DHT22;10238;49.556;10.956;2024-02-21T05:41:46;5.30;99.90
20155;DHT22;10238;49.556;10.956;2024-02-21T05:44:34;5.30;99.90
20155;DHT22;10238;49.556;10.956;2024-02-21T05:47:25;5.30;99.90
20155;DHT22;10238;49.556;10.956;2024-02-21T05:50:12;5.20;99.90
20155;DHT22;10238;49.556;10.956;2024-02-21T05:53:00;5.20;99.90
20155;DHT22;10238;49.556;10.956;2024-02-21T05:55:49;5.10;99.90
20155;DHT22;10238;49.556;10.956;2024-02-21T05:58:37;5.10;99.90
20155;DHT22;10238;49.556;10.956;2024-02-21T06:01:25;5.10;99.90
20155;DHT22;10238;49.556;10.956;2024-02-21T06:04:15;5.00;99.90
20155;DHT22;10238;49.556;10.956;2024-02-21T06:07:03;5.00;99.90
20155;DHT22;10238;49.556;10.956;2024-02-21T06:09:51;4.90;99.90
20155;DHT22;10238;49.556;10.956;2024-02-21T06:12:39;4.80;99.90
20155;DHT22;10238;49.556;10.956;2024-02-21T06:15:26;4.80;99.90
20155;DHT22;10238;49.556;10.956;2024-02-21T06:18:14;4.70;99.90
20155;DHT22;10238;49.556;10.956;2024-02-21T06:21:06;4.70;99.90
20155;DHT22;10238;49.556;10.956;2024-02-21T06:23:54;4.60;99.90
20155;DHT22;10238;49.556;10.956;2024-02-21T06:26:42;4.60;99.90
20155;DHT22;10238;49.556;10.956;2024-02-21T06:29:30;4.50;99.90
20155;DHT22;10238;49.556;10.956;2024-02-21T06:32:18;4.40;99.90
20155;DHT22;10238;49.556;10.956;2024-02-21T06:35:06;4.40;99.90
20155;DHT22;10238;49.556;10.956;2024-02-21T06:37:55;4.40;99.90
20155;DHT22;10238;49.556;10.956;2024-02-21T06:40:43;4.30;99.90
20155;DHT22;10238;49.556;10.956;2024-02-21T06:43:38;4.30;99.90
20155;DHT22;10238;49.556;10.956;2024-02-21T06:46:26;4.20;99.90
20155;DHT22;10238;49.556;10.956;2024-02-21T06:49:15;4.20;99.90
20155;DHT22;10238;49.556;10.956;2024-02-21T06:52:04;4.20;99.90
20155;DHT22;10238;49.556;10.956;2024-02-21T06:54:54;4.20;99.90
20155;DHT22;10238;49.556;10.956;2024-02-21T06:57:42;4.20;99.90
20155;DHT22;10238;49.556;10.956;2024-02-21T07:00:29;4.30;99.90
20155;DHT22;10238;49.556;10.956;2024-02-21T07:03:17;4.40;99.90
20155;DHT22;10238;49.556;10.956;2024-02-21T07:06:06;4.60;99.90
20155;DHT22;10238;49.556;10.956;2024-02-21T07:08:54;4.80;99.90
20155;DHT22;10238;49.556;10.956;2024-02-21T07:11:43;4.90;99.90
20155;DHT22;10238;49.556;10.956;2024-02-21T07:14:32;5.00;99.90
20155;DHT22;10238;49.556;10.956;2024-02-21T07:17:20;5.10;99.90
20155;DHT22;10238;49.556;10.956;2024-02-21T07:20:08;5.20;99.90
20155;DHT22;10238;49.556;10.956;2024-02-21T07:22:56;5.20;99.90
20155;DHT22;10238;49.556;10.956;2024-02-21T07:25:44;5.30;99.90
20155;DHT22;10238;49.556;10.956;2024-02-21T07:28:33;5.30;99.90
20155;DHT22;10238;49.556;10.956;2024-02-21T07:31:22;5.30;99.90
20155;DHT22;10238;49.556;10.956;2024-02-21T07:34:10;5.40;99.90
20155;DHT22;10238;49.556;10.956;2024-02-21T07:36:57;5.50;99.90
20155;DHT22;10238;49.556;10.956;2024-02-21T07:39:45;5.50;99.90
20155;DHT22;10238;49.556;10.956;2024-02-21T07:42:33;5.70;99.90
20155;DHT22;10238;49.556;10.956;2024-02-21T07:45:22;5.80;99.90
20155;DHT22;10238;49.556;10.956;2024-02-21T07:48:10;5.90;99.90
20155;DHT22;10238;49.556;10.956;2024-02-21T07:50:58;6.00;99.90
20155;DHT22;10238;49.556;10.956;2024-02-21T07:53:46;6.10;99.90
20155;DHT22;10238;49.556;10.956;2024-02-21T07:56:34;6.20;99.90
20155;DHT22;10238;49.556;10.956;2024-02-21T07:59:22;6.20;99.90
20155;DHT22;10238;49.556;10.956;2024-02-21T08:02:15;6.30;99.90
20155;DHT22;10238;49.556;10.956;2024-02-21T08:05:03;6.40;99.90
20155;DHT22;10238;49.556;10.956;2024-02-21T08:07:53;6.40;99.90
20155;DHT22;10238;49.556;10.956;2024-02-21T08:10:43;6.40;99.90
20155;DHT22;10238;49.556;10.956;2024-02-21T08:13:31;6.50;99.90
20155;DHT22;10238;49.556;10.956;2024-02-21T08:16:19;6.60;99.90
20155;DHT22;10238;49.556;10.956;2024-02-21T08:19:10;6.70;99.90
20155;DHT22;10238;49.556;10.956;2024-02-21T08:21:58;6.80;99.90
20155;DHT22;10238;49.556;10.956;2024-02-21T08:24:46;6.80;99.90
20155;DHT22;10238;49.556;10.956;2024-02-21T08:27:34;6.90;99.90
20155;DHT22;10238;49.556;10.956;2024-02-21T08:30:22;7.00;99.90
20155;DHT22;10238;49.556;10.956;2024-02-21T08:33:09;7.20;99.90
20155;DHT22;10238;49.556;10.956;2024-02-21T08:35:58;7.30;99.90
20155;DHT22;10238;49.556;10.956;2024-02-21T08:38:46;7.40;99.90
20155;DHT22;10238;49.556;10.956;2024-02-21T08:41:34;7.50;99.90
20155;DHT22;10238;49.556;10.956;2024-02-21T08:44:41;7.60;99.90
20155;DHT22;10238;49.556;10.956;2024-02-21T08:47:30;7.80;99.90
20155;DHT22;10238;49.556;10.956;2024-02-21T08:50:17;7.90;99.90
20155;DHT22;10238;49.556;10.956;2024-02-21T08:53:15;8.00;99.90
20155;DHT22;10238;49.556;10.956;2024-02-21T08:56:04;8.20;99.90
20155;DHT22;10238;49.556;10.956;2024-02-21T08:58:53;8.20;99.90
20155;DHT22;10238;49.556;10.956;2024-02-21T09:01:42;8.30;99.90
20155;DHT22;10238;49.556;10.956;2024-02-21T09:04:30;8.40;99.90
20155;DHT22;10238;49.556;10.956;2024-02-21T09:07:18;8.50;99.90
20155;DHT22;10238;49.556;10.956;2024-02-21T09:10:09;8.60;99.90
20155;DHT22;10238;49.556;10.956;2024-02-21T09:12:57;8.70;99.90
20155;DHT22;10238;49.556;10.956;2024-02-21T09:15:44;8.80;99.90
20155;DHT22;10238;49.556;10.956;2024-02-21T09:18:32;8.90;99.90
20155;DHT22;10238;49.556;10.956;2024-02-21T09:21:20;9.00;99.90
20155;DHT22;10238;49.556;10.956;2024-02-21T09:24:07;9.10;99.90
20155;DHT22;10238;49.556;10.956;2024-02-21T09:26:56;9.10;99.90
20155;DHT22;10238;49.556;10.956;2024-02-21T09:29:44;9.20;99.90
20155;DHT22;10238;49.556;10.956;2024-02-21T09:32:32;9.10;99.90
20155;DHT22;10238;49.556;10.956;2024-02-21T09:35:20;9.20;99.90
20155;DHT22;10238;49.556;10.956;2024-02-21T09:38:09;9.30;99.90
20155;DHT22;10238;49.556;10.956;2024-02-21T09:40:59;9.40;99.90
20155;DHT22;10238;49.556;10.956;2024-02-21T09:43:53;9.50;99.90
20155;DHT22;10238;49.556;10.956;2024-02-21T09:46:47;9.60;99.90
20155;DHT22;10238;49.556;10.956;2024-02-21T09:49:43;9.60;99.90
20155;DHT22;10238;49.556;10.956;2024-02-21T09:52:35;9.60;99.90
20155;DHT22;10238;49.556;10.956;2024-02-21T09:55:23;9.70;99.90
20155;DHT22;10238;49.556;10.956;2024-02-21T09:58:13;9.70;99.90
20155;DHT22;10238;49.556;10.956;2024-02-21T10:01:03;9.80;99.90
20155;DHT22;10238;49.556;10.956;2024-02-21T10:04:10;9.90;99.90
20155;DHT22;10238;49.556;10.956;2024-02-21T10:06:59;10.10;99.90
20155;DHT22;10238;49.556;10.956;2024-02-21T10:09:46;10.10;99.90
20155;DHT22;10238;49.556;10.956;2024-02-21T10:12:34;10.10;99.90
20155;DHT22;10238;49.556;10.956;2024-02-21T10:15:23;10.20;99.90
20155;DHT22;10238;49.556;10.956;2024-02-21T10:18:17;10.40;99.90
20155;DHT22;10238;49.556;10.956;2024-02-21T10:21:06;10.50;99.90
20155;DHT22;10238;49.556;10.956;2024-02-21T10:23:54;10.60;99.90
20155;DHT22;10238;49.556;10.956;2024-02-21T10:26:42;10.70;99.90
20155;DHT22;10238;49.556;10.956;2024-02-21T10:29:30;10.80;99.90
20155;DHT22;10238;49.556;10.956;2024-02-21T10:32:18;10.90;99.90
20155;DHT22;10238;49.556;10.956;2024-02-21T10:35:07;10.90;99.90
20155;DHT22;10238;49.556;10.956;2024-02-21T10:37:56;11.00;99.90
20155;DHT22;10238;49.556;10.956;2024-02-21T10:40:47;11.00;99.90
20155;DHT22;10238;49.556;10.956;2024-02-21T10:43:39;11.10;99.90
20155;DHT22;10238;49.556;10.956;2024-02-21T10:46:28;11.20;99.90
20155;DHT22;10238;49.556;10.956;2024-02-21T10:49:23;11.30;99.90
20155;DHT22;10238;49.556;10.956;2024-02-21T10:52:19;11.50;99.90
20155;DHT22;10238;49.556;10.956;2024-02-21T10:55:21;11.60;99.90
20155;DHT22;10238;49.556;10.956;2024-02-21T10:58:17;11.70;99.90
20155;DHT22;10238;49.556;10.956;2024-02-21T11:01:06;11.70;99.90
20155;DHT22;10238;49.556;10.956;2024-02-21T11:03:56;11.70;99.90
20155;DHT22;10238;49.556;10.956;2024-02-21T11:06:46;11.80;99.90
20155;DHT22;10238;49.556;10.956;2024-02-21T11:09:39;11.90;99.90
20155;DHT22;10238;49.556;10.956;2024-02-21T11:12:26;12.00;99.90
20155;DHT22;10238;49.556;10.956;2024-02-21T11:15:15;12.00;99.90
20155;DHT22;10238;49.556;10.956;2024-02-21T11:18:03;11.90;99.90
20155;DHT22;10238;49.556;10.956;2024-02-21T11:20:51;11.90;99.90
20155;DHT22;10238;49.556;10.956;2024-02-21T11:23:38;12.10;99.90
20155;DHT22;10238;49.556;10.956;2024-02-21T11:26:29;12.20;99.90
20155;DHT22;10238;49.556;10.956;2024-02-21T11:29:23;12.40;99.90
20155;DHT22;10238;49.556;10.956;2024-02-21T11:32:14;12.40;99.90
20155;DHT22;10238;49.556;10.956;2024-02-21T11:35:03;12.50;99.90
20155;DHT22;10238;49.556;10.956;2024-02-21T11:37:54;12.60;99.90
20155;DHT22;10238;49.556;10.956;2024-02-21T11:40:44;12.70;99.90
20155;DHT22;10238;49.556;10.956;2024-02-21T11:43:34;12.90;99.90
20155;DHT22;10238;49.556;10.956;2024-02-21T11:46:22;13.20;99.90
20155;DHT22;10238;49.556;10.956;2024-02-21T11:49:10;13.30;99.90
20155;DHT22;10238;49.556;10.956;2024-02-21T11:51:59;13.10;99.90
20155;DHT22;10238;49.556;10.956;2024-02-21T11:54:50;13.20;99.90
20155;DHT22;10238;49.556;10.956;2024-02-21T11:57:38;13.10;99.90
20155;DHT22;10238;49.556;10.956;2024-02-21T12:00:31;13.00;99.90
20155;DHT22;10238;49.556;10.956;2024-02-21T12:03:18;13.30;99.90
20155;DHT22;10238;49.556;10.956;2024-02-21T12:06:07;13.20;99.90
20155;DHT22;10238;49.556;10.956;2024-02-21T12:08:58;13.20;99.90
20155;DHT22;10238;49.556;10.956;2024-02-21T12:11:45;13.20;99.90
20155;DHT22;10238;49.556;10.956;2024-02-21T12:14:44;13.40;99.90
20155;DHT22;10238;49.556;10.956;2024-02-21T12:17:34;13.40;99.90
20155;DHT22;10238;49.556;10.956;2024-02-21T12:20:22;13.50;99.90
20155;DHT22;10238;49.556;10.956;2024-02-21T12:23:10;13.60;99.90
20155;DHT22;10238;49.556;10.956;2024-02-21T12:25:59;13.70;99.90
20155;DHT22;10238;49.556;10.956;2024-02-21T12:28:47;13.70;99.90
20155;DHT22;10238;49.556;10.956;2024-02-21T12:31:35;13.50;99.90
20155;DHT22;10238;49.556;10.956;2024-02-21T12:34:25;13.60;99.90
20155;DHT22;10238;49.556;10.956;2024-02-21T12:37:28;13.70;99.90
20155;DHT22;10238;49.556;10.956;2024-02-21T12:40:16;13.80;99.90
20155;DHT22;10238;49.556;10.956;2024-02-21T12:43:04;13.90;99.90
20155;DHT22;10238;49.556;10.956;2024-02-21T12:45:52;14.10;99.90
20155;DHT22;10238;49.556;10.956;2024-02-21T12:48:39;14.20;99.90
20155;DHT22;10238;49.556;10.956;2024-02-21T12:51:29;14.00;99.90
20155;DHT22;10238;49.556;10.956;2024-02-21T12:54:16;14.10;99.90
20155;DHT22;10238;49.556;10.956;2024-02-21T12:57:06;14.10;99.90
20155;DHT22;10238;49.556;10.956;2024-02-21T12:59:54;14.10;99.90
20155;DHT22;10238;49.556;10.956;2024-02-21T13:02:41;14.10;99.90
20155;DHT22;10238;49.556;10.956;2024-02-21T13:05:29;14.20;99.90
20155;DHT22;10238;49.556;10.956;2024-02-21T13:08:19;14.40;99.90
20155;DHT22;10238;49.556;10.956;2024-02-21T13:11:08;14.60;99.90
20155;DHT22;10238;49.556;10.956;2024-02-21T13:13:57;14.70;99.90
20155;DHT22;10238;49.556;10.956;2024-02-21T13:16:45;14.50;99.90
20155;DHT22;10238;49.556;10.956;2024-02-21T13:19:33;14.40;99.90
20155;DHT22;10238;49.556;10.956;2024-02-21T13:22:21;14.30;99.90
20155;DHT22;10238;49.556;10.956;2024-02-21T13:25:13;14.50;99.90
20155;DHT22;10238;49.556;10.956;2024-02-21T13:28:04;14.40;99.90
20155;DHT22;10238;49.556;10.956;2024-02-21T13:30:53;14.30;99.90
20155;DHT22;10238;49.556;10.956;2024-02-21T13:33:42;14.10;99.90
20155;DHT22;10238;49.556;10.956;2024-02-21T13:36:30;14.00;99.90
20155;DHT22;10238;49.556;10.956;2024-02-21T13:39:18;14.10;99.90
20155;DHT22;10238;49.556;10.956;2024-02-21T13:42:07;14.00;99.90
20155;DHT22;10238;49.556;10.956;2024-02-21T13:44:55;13.80;99.90
20155;DHT22;10238;49.556;10.956;2024-02-21T13:47:43;13.70;99.90
20155;DHT22;10238;49.556;10.956;2024-02-21T13:50:30;13.60;99.90
20155;DHT22;10238;49.556;10.956;2024-02-21T13:53:21;13.70;99.90
20155;DHT22;10238;49.556;10.956;2024-02-21T13:56:09;13.60;99.90
20155;DHT22;10238;49.556;10.956;2024-02-21T13:58:59;13.60;99.90
20155;DHT22;10238;49.556;10.956;2024-02-21T14:01:47;13.80;99.90
20155;DHT22;10238;49.556;10.956;2024-02-21T14:04:35;13.90;99.90
20155;DHT22;10238;49.556;10.956;2024-02-21T14:07:23;13.90;99.90
20155;DHT22;10238;49.556;10.956;2024-02-21T14:10:11;13.80;99.90
20155;DHT22;10238;49.556;10.956;2024-02-21T14:12:58;13.70;99.90
20155;DHT22;10238;49.556;10.956;2024-02-21T14:15:47;13.70;99.90
20155;DHT22;10238;49.556;10.956;2024-02-21T14:18:36;13.50;99.90
20155;DHT22;10238;49.556;10.956;2024-02-21T14:21:25;13.30;99.90
20155;DHT22;10238;49.556;10.956;2024-02-21T14:24:12;13.40;99.90
20155;DHT22;10238;49.556;10.956;2024-02-21T14:27:00;13.40;99.90
20155;DHT22;10238;49.556;10.956;2024-02-21T14:29:49;13.40;99.90
20155;DHT22;10238;49.556;10.956;2024-02-21T14:32:40;13.30;99.90
20155;DHT22;10238;49.556;10.956;2024-02-21T14:35:31;13.20;99.90
20155;DHT22;10238;49.556;10.956;2024-02-21T14:38:22;13.10;99.90
20155;DHT22;10238;49.556;10.956;2024-02-21T14:41:10;13.00;99.90
20155;DHT22;10238;49.556;10.956;2024-02-21T14:43:59;13.00;99.90
20155;DHT22;10238;49.556;10.956;2024-02-21T14:46:50;13.10;99.90
20155;DHT22;10238;49.556;10.956;2024-02-21T14:49:39;13.10;99.90
20155;DHT22;10238;49.556;10.956;2024-02-21T14:52:27;13.00;99.90
20155;DHT22;10238;49.556;10.956;2024-02-21T14:55:16;13.00;99.90
20155;DHT22;10238;49.556;10.956;2024-02-21T14:58:05;12.90;99.90
20155;DHT22;10238;49.556;10.956;2024-02-21T15:00:54;12.80;99.90
20155;DHT22;10238;49.556;10.956;2024-02-21T15:03:42;12.60;99.90
20155;DHT22;10238;49.556;10.956;2024-02-21T15:06:31;12.60;99.90
20155;DHT22;10238;49.556;10.956;2024-02-21T15:09:19;12.60;99.90
20155;DHT22;10238;49.556;10.956;2024-02-21T15:12:07;12.60;99.90
20155;DHT22;10238;49.556;10.956;2024-02-21T15:14:55;12.60;99.90
20155;DHT22;10238;49.556;10.956;2024-02-21T15:17:43;12.70;99.90
20155;DHT22;10238;49.556;10.956;2024-02-21T15:20:31;12.70;99.90
20155;DHT22;10238;49.556;10.956;2024-02-21T15:23:20;12.70;99.90
20155;DHT22;10238;49.556;10.956;2024-02-21T15:26:09;12.60;99.90
20155;DHT22;10238;49.556;10.956;2024-02-21T15:28:58;12.60;99.90
20155;DHT22;10238;49.556;10.956;2024-02-21T15:31:46;12.60;99.90
20155;DHT22;10238;49.556;10.956;2024-02-21T15:34:34;12.50;99.90
20155;DHT22;10238;49.556;10.956;2024-02-21T15:37:22;12.40;99.90
20155;DHT22;10238;49.556;10.956;2024-02-21T15:40:13;12.40;99.90
20155;DHT22;10238;49.556;10.956;2024-02-21T15:43:01;12.40;99.90
20155;DHT22;10238;49.556;10.956;2024-02-21T15:45:49;12.40;99.90
20155;DHT22;10238;49.556;10.956;2024-02-21T15:48:36;12.40;99.90
20155;DHT22;10238;49.556;10.956;2024-02-21T15:51:24;12.30;99.90
20155;DHT22;10238;49.556;10.956;2024-02-21T15:54:12;12.30;99.90
20155;DHT22;10238;49.556;10.956;2024-02-21T15:57:10;12.30;99.90
20155;DHT22;10238;49.556;10.956;2024-02-21T15:59:57;12.20;99.90
20155;DHT22;10238;49.556;10.956;2024-02-21T16:02:45;12.10;99.90
20155;DHT22;10238;49.556;10.956;2024-02-21T16:05:34;12.00;99.90
20155;DHT22;10238;49.556;10.956;2024-02-21T16:08:22;12.00;99.90
20155;DHT22;10238;49.556;10.956;2024-02-21T16:11:13;11.90;99.90
20155;DHT22;10238;49.556;10.956;2024-02-21T16:14:05;11.80;99.90
20155;DHT22;10238;49.556;10.956;2024-02-21T16:16:53;11.70;99.90
20155;DHT22;10238;49.556;10.956;2024-02-21T16:19:43;11.70;99.90
20155;DHT22;10238;49.556;10.956;2024-02-21T16:22:31;11.60;99.90
20155;DHT22;10238;49.556;10.956;2024-02-21T16:25:19;11.50;99.90
20155;DHT22;10238;49.556;10.956;2024-02-21T16:28:07;11.40;99.90
20155;DHT22;10238;49.556;10.956;2024-02-21T16:30:56;11.40;99.90
20155;DHT22;10238;49.556;10.956;2024-02-21T16:33:44;11.30;99.90
20155;DHT22;10238;49.556;10.956;2024-02-21T16:36:32;11.20;99.90
20155;DHT22;10238;49.556;10.956;2024-02-21T16:39:20;11.10;99.90
20155;DHT22;10238;49.556;10.956;2024-02-21T16:42:07;10.90;99.90
20155;DHT22;10238;49.556;10.956;2024-02-21T16:44:57;10.70;99.90
20155;DHT22;10238;49.556;10.956;2024-02-21T16:47:48;10.60;99.90
20155;DHT22;10238;49.556;10.956;2024-02-21T16:50:36;10.40;99.90
20155;DHT22;10238;49.556;10.956;2024-02-21T16:53:38;10.30;99.90
20155;DHT22;10238;49.556;10.956;2024-02-21T16:56:26;10.10;99.90
20155;DHT22;10238;49.556;10.956;2024-02-21T16:59:14;10.00;99.90
20155;DHT22;10238;49.556;10.956;2024-02-21T17:02:02;9.90;99.90
20155;DHT22;10238;49.556;10.956;2024-02-21T17:04:52;9.70;99.90
20155;DHT22;10238;49.556;10.956;2024-02-21T17:07:42;9.60;99.90
20155;DHT22;10238;49.556;10.956;2024-02-21T17:10:30;9.50;99.90
20155;DHT22;10238;49.556;10.956;2024-02-21T17:13:18;9.40;99.90
20155;DHT22;10238;49.556;10.956;2024-02-21T17:16:06;9.40;99.90
20155;DHT22;10238;49.556;10.956;2024-02-21T17:18:55;9.40;99.90
20155;DHT22;10238;49.556;10.956;2024-02-21T17:21:47;9.40;99.90
20155;DHT22;10238;49.556;10.956;2024-02-21T17:24:35;9.30;99.90
20155;DHT22;10238;49.556;10.956;2024-02-21T17:27:23;9.30;99.90
20155;DHT22;10238;49.556;10.956;2024-02-21T17:30:14;9.20;99.90
20155;DHT22;10238;49.556;10.956;2024-02-21T17:33:02;9.20;99.90
20155;DHT22;10238;49.556;10.956;2024-02-21T17:35:53;9.10;99.90
20155;DHT22;10238;49.556;10.956;2024-02-21T17:38:42;9.00;99.90
20155;DHT22;10238;49.556;10.956;2024-02-21T17:41:30;9.00;99.90